الصفحة الرئيسية
METAR-TAF:

METAR-TAF

مطار :

Greeley-Weld County Airport

Greeley, كولورادو, الولايات المتحدة

دائرة عرض: 40-26N, خط طول: 104-38W, ارتفاع: 1420 متر

مراقبة الطقس الحالي

تاريخ ووقت الإصدار 39 دقيقة قبل الساعة 01:56UTC
ريح 5 عقدة من الشرق/الشمال الشرقي
درجة الحرارة 24°درجة مئوية
الرطوبة 41%
ضغط 1014 hPa
الرؤية: 16.1 كم
سماء صافية

METAR: KGXY 260156Z AUTO 07005KT 10SM CLR 24/10 A2995 RMK AO2 SLP103 T02390100

زمن: 20:35 (02:35 UTC)


TAF: مفقودة

أرصاد الطقس والتوقعات من أكثر من 4000 مطار (تقارير الطقس للمطار METAR والتنبؤ بالطقس بالمطارTAF).

المحطات المتاحة هي النقط الصفراء والحمراء على الخريطة.

حرك المؤشر فوق النقطة لمعرفة اسم المحطة.

ثم انقر لمعرفة أرصاد وتوقعات الطقس.

لتغيير الخارطة: اضغط على الأزرار الخضراء مع رمز الصليب الأسود للتكبير. على الزر الأخضر مع شرطة للتصغير، أو على الأسهم الخضراء للخرائط المجاورة.


METAR-TAF: